Time;durP1;ratioP1;P1;durP2;ratioP2;P2;SDS_P1;SDS_P2;PMS_P1;PMS_P2;Temp;Humidity;BMP_temperature;BMP_pressure;BME280_temperature;BME280_humidity;BME280_pressure;Samples;Min_cycle;Max_cycle;Signal;HPM_P1;HPM_P2
2023/07/22 00:00:30;;;;;;;6.60;4.40;;;22.80;83.20;;;;;;5092753;28;20493;-59
2023/07/22 00:02:56;;;;;;;7.70;4.35;;;22.80;83.10;;;;;;5087699;28;20076;-60
2023/07/22 00:05:23;;;;;;;7.57;4.35;;;;;;;;;;5084548;28;20476;-60
2023/07/22 00:07:49;;;;;;;9.65;4.35;;;22.90;83.30;;;;;;5092187;28;20044;-62
2023/07/22 00:10:16;;;;;;;7.53;4.53;;;22.80;83.10;;;;;;5092871;28;20044;-63
2023/07/22 00:12:41;;;;;;;8.48;4.15;;;22.70;83.10;;;;;;5087284;28;20041;-62
2023/07/22 00:15:08;;;;;;;7.60;4.20;;;22.70;83.10;;;;;;5086884;28;20036;-60
2023/07/22 00:17:34;;;;;;;6.57;4.43;;;;;;;;;;5083288;28;20441;-63
2023/07/22 00:20:00;;;;;;;7.40;4.60;;;22.90;83.20;;;;;;5088555;28;20103;-59
2023/07/22 00:22:26;;;;;;;7.18;4.57;;;22.60;83.10;;;;;;5091138;28;20093;-60
2023/07/22 00:24:52;;;;;;;8.15;4.28;;;22.70;83.20;;;;;;5086794;28;20053;-60
2023/07/22 00:27:18;;;;;;;8.95;4.85;;;22.90;83.50;;;;;;5092548;28;20119;-63
2023/07/22 00:29:44;;;;;;;7.97;4.03;;;22.70;80.80;;;;;;5092293;28;20055;-61
2023/07/22 00:32:10;;;;;;;7.85;4.65;;;22.70;83.30;;;;;;5091252;28;20500;-60
2023/07/22 00:34:36;;;;;;;7.70;4.80;;;22.60;83.10;;;;;;5072825;28;20080;-63
2023/07/22 00:37:02;;;;;;;7.85;4.20;;;22.60;83.10;;;;;;5075326;28;20048;-59
2023/07/22 00:39:28;;;;;;;9.60;4.80;;;22.60;84.20;;;;;;5092150;28;20101;-60
2023/07/22 00:41:54;;;;;;;6.97;4.47;;;;;;;;;;5092533;28;20485;-63
2023/07/22 00:44:20;;;;;;;7.25;4.55;;;22.60;83.30;;;;;;5088438;28;20041;-60
2023/07/22 00:46:46;;;;;;;7.30;4.40;;;22.80;83.40;;;;;;5084611;28;20112;-61
2023/07/22 00:49:12;;;;;;;8.35;4.80;;;22.80;83.50;;;;;;5091882;28;20044;-60
2023/07/22 00:51:38;;;;;;;7.45;4.30;;;22.70;83.30;;;;;;5074732;28;20137;-62
2023/07/22 00:54:04;;;;;;;8.07;4.90;;;22.90;81.10;;;;;;5073857;28;20100;-59
2023/07/22 00:56:32;;;;;;;6.60;4.32;;;22.60;83.30;;;;;;5082735;28;20778;-61
2023/07/22 00:58:58;;;;;;;6.35;4.22;;;22.80;81.30;;;;;;5092589;28;20052;-62
2023/07/22 01:01:24;;;;;;;6.13;4.13;;;22.60;83.50;;;;;;5078138;28;20051;-59
2023/07/22 01:03:50;;;;;;;7.93;4.60;;;;;;;;;;5096068;28;20108;-63
2023/07/22 01:06:17;;;;;;;7.43;4.78;;;22.60;83.40;;;;;;5095133;28;20051;-62
2023/07/22 01:08:43;;;;;;;7.53;4.43;;;22.80;83.40;;;;;;5077787;28;20044;-60
2023/07/22 01:11:09;;;;;;;6.20;4.15;;;22.60;80.90;;;;;;5096141;28;20109;-61
2023/07/22 01:13:35;;;;;;;6.93;4.50;;;22.60;83.40;;;;;;5096319;28;20089;-60
2023/07/22 01:16:00;;;;;;;6.53;4.47;;;22.50;83.30;;;;;;5095241;28;20511;-63
2023/07/22 01:18:26;;;;;;;7.38;4.28;;;22.60;83.60;;;;;;5096178;28;20044;-59
2023/07/22 01:20:52;;;;;;;8.60;4.72;;;22.50;83.40;;;;;;5086833;28;20050;-61
2023/07/22 01:23:18;;;;;;;7.18;5.18;;;22.50;83.70;;;;;;5072368;28;20064;-60
2023/07/22 01:25:43;;;;;;;7.38;4.70;;;22.70;84.00;;;;;;5095458;28;20055;-60
2023/07/22 01:28:10;;;;;;;7.50;4.50;;;22.60;84.20;;;;;;5092974;28;20139;-61
2023/07/22 01:30:36;;;;;;;7.72;4.25;;;22.70;83.70;;;;;;5095614;28;20128;-61
2023/07/22 01:33:03;;;;;;;7.13;4.20;;;22.60;83.50;;;;;;5095877;28;20426;-60
2023/07/22 01:35:28;;;;;;;7.25;4.30;;;22.60;83.50;;;;;;5080622;28;20445;-60
2023/07/22 01:37:54;;;;;;;7.03;4.47;;;22.40;83.40;;;;;;5084902;28;20037;-64
2023/07/22 01:40:20;;;;;;;6.90;4.15;;;22.60;83.60;;;;;;5092570;28;20044;-63
2023/07/22 01:42:46;;;;;;;6.45;4.32;;;;;;;;;;5056828;28;20589;-62
2023/07/22 01:45:12;;;;;;;9.10;4.22;;;22.50;83.60;;;;;;5074887;28;20044;-60
2023/07/22 01:47:40;;;;;;;7.50;4.30;;;22.50;83.80;;;;;;5082873;28;20040;-61
2023/07/22 01:50:06;;;;;;;5.90;3.70;;;22.60;84.50;;;;;;5095140;28;20121;-60
2023/07/22 01:52:32;;;;;;;6.97;4.50;;;22.50;84.30;;;;;;5095507;28;20440;-61
2023/07/22 01:54:58;;;;;;;8.05;4.20;;;22.40;81.10;;;;;;5095372;28;20093;-61
2023/07/22 01:57:24;;;;;;;7.90;4.28;;;22.50;82.70;;;;;;5092998;28;20045;-61
2023/07/22 01:59:50;;;;;;;7.85;4.03;;;22.50;84.10;;;;;;5093561;28;20493;-60
2023/07/22 02:02:16;;;;;;;7.70;4.15;;;22.40;83.80;;;;;;5094830;28;20124;-60
2023/07/22 02:04:41;;;;;;;7.30;4.32;;;22.30;83.80;;;;;;5095121;28;20079;-62
2023/07/22 02:07:07;;;;;;;6.32;3.72;;;22.50;83.60;;;;;;5094997;28;20036;-60
2023/07/22 02:09:33;;;;;;;6.57;4.07;;;22.50;83.70;;;;;;5093285;28;20052;-61
2023/07/22 02:11:59;;;;;;;7.32;4.40;;;22.40;83.50;;;;;;5093738;28;20492;-61
2023/07/22 02:14:24;;;;;;;6.93;4.00;;;22.50;83.80;;;;;;5091450;28;20174;-59
2023/07/22 02:16:50;;;;;;;7.03;3.95;;;22.20;81.20;;;;;;5091042;28;20032;-61
2023/07/22 02:19:16;;;;;;;6.45;4.03;;;22.40;83.60;;;;;;5093762;28;20074;-59
2023/07/22 02:21:42;;;;;;;6.72;3.85;;;22.50;83.80;;;;;;5094530;28;20097;-60
2023/07/22 02:24:09;;;;;;;7.25;4.45;;;22.60;81.40;;;;;;5094647;28;20052;-61
2023/07/22 02:26:34;;;;;;;7.07;4.00;;;22.30;83.80;;;;;;5093622;28;20051;-59
2023/07/22 02:29:00;;;;;;;7.97;3.80;;;22.40;83.60;;;;;;5091057;28;20482;-60
2023/07/22 02:31:26;;;;;;;6.60;3.45;;;22.20;83.50;;;;;;5089120;28;20060;-59
2023/07/22 02:33:52;;;;;;;7.13;3.80;;;22.30;83.60;;;;;;5081811;28;20036;-61
2023/07/22 02:36:17;;;;;;;6.45;3.70;;;22.40;83.60;;;;;;5092985;28;20070;-60
2023/07/22 02:38:43;;;;;;;7.00;3.78;;;22.20;83.50;;;;;;5091923;28;20040;-61
2023/07/22 02:41:09;;;;;;;6.55;3.58;;;22.30;80.30;;;;;;5077395;28;20425;-62
2023/07/22 02:43:35;;;;;;;6.15;3.47;;;22.20;84.20;;;;;;5090454;28;20033;-60
2023/07/22 02:46:07;;;;;;;6.82;3.88;;;22.40;83.60;;;;;;5078685;28;20036;-61
2023/07/22 02:48:33;;;;;;;6.85;3.80;;;22.40;83.70;;;;;;5076188;28;20083;-61
2023/07/22 02:51:09;;;;;;;7.78;4.35;;;22.40;83.70;;;;;;5092221;28;20474;-60
2023/07/22 02:53:36;;;;;;;5.38;3.35;;;22.40;83.90;;;;;;5084610;28;20044;-61
2023/07/22 02:56:02;;;;;;;5.70;3.30;;;22.30;83.60;;;;;;5077690;28;20064;-60
2023/07/22 02:58:28;;;;;;;6.65;3.40;;;22.40;82.70;;;;;;5069182;28;20112;-63
2023/07/22 03:00:54;;;;;;;5.68;3.20;;;22.30;83.60;;;;;;5091768;28;20036;-60
2023/07/22 03:03:20;;;;;;;6.10;3.38;;;22.20;83.60;;;;;;5093862;28;20055;-63
2023/07/22 03:05:47;;;;;;;5.68;3.50;;;22.40;83.60;;;;;;5086230;28;20067;-61
2023/07/22 03:08:13;;;;;;;6.57;3.75;;;22.20;83.60;;;;;;5083740;28;20076;-61
2023/07/22 03:10:39;;;;;;;6.38;3.58;;;22.20;83.60;;;;;;5090988;28;20519;-61
2023/07/22 03:13:04;;;;;;;5.75;3.50;;;22.20;83.70;;;;;;5093295;28;20074;-60
2023/07/22 03:15:30;;;;;;;6.57;3.40;;;22.10;83.60;;;;;;5076316;28;20036;-62
2023/07/22 03:17:56;;;;;;;5.32;3.17;;;22.20;83.60;;;;;;5091206;28;20467;-59
2023/07/22 03:20:23;;;;;;;6.70;3.35;;;22.20;83.60;;;;;;5083047;28;20071;-60
2023/07/22 03:22:49;;;;;;;7.25;3.35;;;22.40;83.60;;;;;;5080861;28;20405;-61
2023/07/22 03:25:16;;;;;;;6.35;3.42;;;22.20;83.80;;;;;;5079130;28;20043;-61
2023/07/22 03:27:43;;;;;;;5.57;3.22;;;22.20;82.60;;;;;;5093370;28;20052;-62
2023/07/22 03:30:14;;;;;;;6.72;3.28;;;22.10;83.50;;;;;;5084282;28;20051;-63
2023/07/22 03:32:42;;;;;;;5.20;3.00;;;22.20;80.00;;;;;;5084300;28;20112;-63
2023/07/22 03:35:11;;;;;;;7.65;2.90;;;22.30;83.90;;;;;;5075075;28;20085;-64
2023/07/22 03:37:37;;;;;;;5.47;3.20;;;22.10;83.40;;;;;;5092985;28;20050;-60
2023/07/22 03:42:59;;;;;;;7.28;3.13;;;22.20;83.50;;;;;;5068093;28;20049;-68
2023/07/22 03:45:25;;;;;;;6.32;3.30;;;22.00;82.70;;;;;;5079803;28;20062;-66
2023/07/22 03:47:58;;;;;;;5.43;3.13;;;22.10;83.40;;;;;;5113388;28;20036;-67
2023/07/22 03:50:24;;;;;;;;;;;22.50;80.00;;;;;;5110701;28;20048;-67
2023/07/22 03:52:49;;;;;;;5.70;3.10;;;22.20;83.50;;;;;;5092128;28;19965;-60
2023/07/22 03:55:15;;;;;;;5.72;2.97;;;22.30;83.60;;;;;;5092928;28;20098;-62
2023/07/22 03:57:41;;;;;;;5.70;3.60;;;22.20;80.90;;;;;;5092918;28;20513;-62
2023/07/22 04:00:10;;;;;;;5.25;3.10;;;;;;;;;;5091370;28;20480;-63
2023/07/22 04:02:36;;;;;;;6.10;3.45;;;22.10;83.50;;;;;;5092266;28;20040;-60
2023/07/22 04:05:02;;;;;;;5.53;2.78;;;22.10;83.60;;;;;;5093104;28;20378;-61
2023/07/22 04:07:28;;;;;;;5.55;3.13;;;22.40;83.80;;;;;;5092999;28;20040;-61
2023/07/22 04:09:54;;;;;;;5.55;3.53;;;22.20;83.50;;;;;;5089563;28;20118;-67
2023/07/22 04:12:19;;;;;;;5.80;3.10;;;22.20;83.40;;;;;;5091594;28;20085;-61
2023/07/22 04:14:45;;;;;;;5.68;3.00;;;22.20;83.40;;;;;;5089986;28;20039;-62
2023/07/22 04:17:11;;;;;;;5.32;3.03;;;22.30;83.40;;;;;;5092580;28;20043;-59
2023/07/22 04:19:37;;;;;;;6.68;3.50;;;22.30;83.40;;;;;;5073274;28;20041;-59
2023/07/22 04:22:04;;;;;;;6.95;3.25;;;22.40;83.60;;;;;;5088318;28;20140;-61
2023/07/22 04:24:31;;;;;;;5.78;2.85;;;22.20;83.20;;;;;;5092960;28;20055;-59
2023/07/22 04:26:57;;;;;;;6.85;3.33;;;22.30;83.30;;;;;;5092872;28;20084;-61
2023/07/22 04:29:23;;;;;;;6.10;3.17;;;22.40;83.30;;;;;;5092671;28;20125;-62
2023/07/22 04:31:49;;;;;;;5.78;3.20;;;;;;;;;;5091584;28;20442;-63
2023/07/22 04:34:14;;;;;;;5.75;2.70;;;22.40;83.50;;;;;;5093437;28;20122;-61
2023/07/22 04:36:40;;;;;;;5.60;2.92;;;22.40;84.10;;;;;;5095172;28;20082;-63
2023/07/22 04:39:07;;;;;;;7.32;3.03;;;22.30;83.20;;;;;;5096307;28;20428;-60
2023/07/22 04:41:33;;;;;;;5.90;3.00;;;22.40;83.20;;;;;;5096839;28;20044;-59
2023/07/22 04:43:59;;;;;;;6.15;3.13;;;22.60;83.30;;;;;;5086000;28;20102;-61
2023/07/22 04:46:25;;;;;;;6.43;3.13;;;22.50;83.20;;;;;;5091077;28;20049;-60
2023/07/22 04:48:54;;;;;;;5.38;3.00;;;22.50;80.80;;;;;;5076951;28;20038;-64
2023/07/22 04:51:20;;;;;;;5.97;2.88;;;22.50;83.00;;;;;;5092299;28;20048;-63
2023/07/22 04:53:45;;;;;;;7.03;3.10;;;22.40;83.00;;;;;;5093291;28;20044;-59
2023/07/22 04:56:11;;;;;;;5.95;3.00;;;22.60;83.20;;;;;;5094822;28;20056;-63
2023/07/22 04:58:38;;;;;;;5.93;3.42;;;22.40;82.90;;;;;;5095472;28;20105;-60
2023/07/22 05:01:04;;;;;;;6.43;2.90;;;22.50;81.00;;;;;;5095920;28;20451;-59
2023/07/22 05:03:30;;;;;;;5.72;3.17;;;22.70;83.00;;;;;;5094041;28;20036;-63
2023/07/22 05:05:57;;;;;;;4.78;2.78;;;22.80;80.60;;;;;;5079756;28;20059;-60
2023/07/22 05:08:23;;;;;;;5.18;3.08;;;22.70;83.00;;;;;;5079009;28;20042;-61
2023/07/22 05:10:49;;;;;;;5.47;2.90;;;22.60;83.00;;;;;;5095483;28;20048;-64
2023/07/22 05:13:16;;;;;;;5.75;2.85;;;22.60;82.80;;;;;;5082192;28;20221;-63
2023/07/22 05:15:42;;;;;;;5.85;3.15;;;22.60;80.60;;;;;;5082438;28;20494;-62
2023/07/22 05:18:08;;;;;;;5.65;2.85;;;23.00;82.90;;;;;;5075563;28;20043;-63
2023/07/22 05:20:34;;;;;;;5.72;3.05;;;22.70;83.20;;;;;;5088898;28;20051;-63
2023/07/22 05:22:59;;;;;;;5.57;2.95;;;22.80;82.60;;;;;;5079578;28;20036;-64
2023/07/22 05:25:25;;;;;;;6.97;3.10;;;22.80;82.70;;;;;;5060169;28;20827;-62
2023/07/22 05:27:51;;;;;;;6.20;3.17;;;22.90;82.80;;;;;;5086587;28;20036;-62
2023/07/22 05:30:17;;;;;;;6.60;2.92;;;22.70;82.60;;;;;;5095448;28;20078;-60
2023/07/22 05:32:43;;;;;;;5.13;2.83;;;23.00;82.90;;;;;;5094525;28;20043;-62
2023/07/22 05:35:09;;;;;;;6.07;2.95;;;22.80;82.60;;;;;;5094731;28;20044;-63
2023/07/22 05:37:34;;;;;;;6.22;3.00;;;22.90;82.70;;;;;;5091293;28;20063;-61
2023/07/22 05:40:01;;;;;;;6.35;2.92;;;23.00;82.80;;;;;;5079453;28;20478;-60
2023/07/22 05:42:27;;;;;;;5.85;3.20;;;22.80;82.70;;;;;;5075001;28;20375;-60
2023/07/22 05:44:54;;;;;;;6.13;3.10;;;22.90;82.80;;;;;;5074486;28;20048;-63
2023/07/22 05:47:20;;;;;;;5.07;2.65;;;22.80;83.20;;;;;;5093969;28;20073;-61
2023/07/22 05:49:46;;;;;;;5.47;3.03;;;22.90;82.80;;;;;;5093492;28;20509;-61
2023/07/22 05:52:12;;;;;;;6.30;3.03;;;;;;;;;;5094302;28;20044;-63
2023/07/22 05:54:38;;;;;;;4.78;2.90;;;22.70;82.60;;;;;;5073467;28;20082;-62
2023/07/22 05:57:04;;;;;;;4.93;2.92;;;22.80;80.30;;;;;;5083099;28;20080;-62
2023/07/22 05:59:30;;;;;;;6.15;3.33;;;22.90;82.90;;;;;;5092909;28;20040;-63
2023/07/22 06:01:56;;;;;;;6.35;3.20;;;22.90;82.90;;;;;;5093365;28;20048;-59
2023/07/22 06:04:22;;;;;;;6.25;3.33;;;22.80;82.70;;;;;;5092418;28;20452;-64
2023/07/22 06:06:48;;;;;;;6.30;3.28;;;22.90;82.70;;;;;;5093993;28;20165;-64
2023/07/22 06:09:14;;;;;;;5.68;3.00;;;22.90;82.60;;;;;;5091810;28;20068;-64
2023/07/22 06:11:40;;;;;;;6.72;3.17;;;22.90;82.80;;;;;;5090709;28;20507;-63
2023/07/22 06:14:06;;;;;;;7.35;3.45;;;23.30;82.90;;;;;;5089892;28;20036;-60
2023/07/22 06:16:32;;;;;;;6.88;3.35;;;23.20;82.70;;;;;;5094420;28;20398;-62
2023/07/22 06:18:58;;;;;;;6.03;3.70;;;23.10;82.20;;;;;;5094425;28;20047;-64
2023/07/22 06:21:23;;;;;;;6.35;3.40;;;23.20;82.10;;;;;;5093637;28;20115;-60
2023/07/22 06:23:50;;;;;;;6.60;3.55;;;23.10;82.00;;;;;;5092346;28;20131;-64
2023/07/22 06:26:16;;;;;;;5.80;3.20;;;23.30;79.60;;;;;;5093094;28;20036;-60
2023/07/22 06:28:42;;;;;;;5.82;3.42;;;23.10;81.90;;;;;;5093705;28;20524;-60
2023/07/22 06:31:08;;;;;;;5.82;3.45;;;23.10;82.70;;;;;;5076260;28;20075;-63
2023/07/22 06:33:33;;;;;;;7.13;3.70;;;23.30;82.00;;;;;;5085484;28;20127;-63
2023/07/22 06:35:59;;;;;;;7.45;3.78;;;23.30;81.90;;;;;;5093186;28;20035;-62
2023/07/22 06:38:25;;;;;;;5.78;3.20;;;23.50;81.80;;;;;;5092712;28;20520;-60
2023/07/22 06:40:53;;;;;;;6.72;3.50;;;23.50;79.40;;;;;;5080065;28;20048;-64
2023/07/22 06:43:19;;;;;;;6.10;4.07;;;23.60;81.50;;;;;;5087143;28;20500;-66
2023/07/22 06:45:44;;;;;;;7.32;3.97;;;23.80;79.20;;;;;;5087757;28;20059;-61
2023/07/22 06:48:10;;;;;;;8.10;4.03;;;23.70;81.60;;;;;;5086752;28;20052;-60
2023/07/22 06:50:36;;;;;;;6.22;3.47;;;23.60;78.70;;;;;;5090008;28;20545;-61
2023/07/22 06:53:02;;;;;;;5.85;3.70;;;23.80;78.60;;;;;;5075602;28;20119;-60
2023/07/22 06:55:27;;;;;;;7.38;4.18;;;24.10;81.30;;;;;;5085054;28;20032;-60
2023/07/22 06:57:56;;;;;;;6.53;3.95;;;24.30;81.70;;;;;;5091725;28;20056;-66
2023/07/22 07:00:21;;;;;;;6.43;4.10;;;24.10;78.60;;;;;;5092147;28;20055;-67
2023/07/22 07:02:47;;;;;;;6.80;4.10;;;24.10;78.40;;;;;;5089470;28;20048;-62
2023/07/22 07:05:13;;;;;;;7.18;4.07;;;24.10;80.80;;;;;;5075420;28;20044;-63
2023/07/22 07:07:40;;;;;;;7.15;4.30;;;24.30;78.10;;;;;;5092427;28;20040;-60
2023/07/22 07:10:07;;;;;;;7.15;4.10;;;;;;;;;;5088100;28;20047;-63
2023/07/22 07:12:33;;;;;;;8.18;4.20;;;24.30;76.70;;;;;;5092601;28;20375;-61
2023/07/22 07:14:59;;;;;;;8.57;4.18;;;24.20;77.70;;;;;;5089601;28;20047;-61
2023/07/22 07:17:25;;;;;;;7.50;4.38;;;24.60;80.40;;;;;;5070014;28;20134;-64
2023/07/22 07:19:51;;;;;;;7.57;4.45;;;24.60;80.20;;;;;;5090518;28;20461;-63
2023/07/22 07:22:16;;;;;;;9.30;4.68;;;24.50;77.50;;;;;;5073999;28;20072;-61
2023/07/22 07:24:42;;;;;;;8.68;5.05;;;24.40;78.00;;;;;;5081338;28;20051;-60
2023/07/22 07:27:08;;;;;;;8.13;4.70;;;24.50;77.30;;;;;;5087609;28;20170;-64
2023/07/22 07:29:34;;;;;;;11.18;6.10;;;24.40;79.20;;;;;;5091902;28;22211;-62
2023/07/22 07:31:59;;;;;;;12.85;6.50;;;24.50;76.90;;;;;;5092589;28;20497;-62
2023/07/22 07:34:25;;;;;;;9.77;6.88;;;24.70;79.90;;;;;;5088584;28;20037;-59
2023/07/22 07:36:51;;;;;;;11.05;7.30;;;24.60;76.70;;;;;;5090219;28;20497;-66
2023/07/22 07:39:17;;;;;;;10.30;6.32;;;24.30;76.50;;;;;;5087497;28;20124;-60
2023/07/22 07:41:42;;;;;;;10.65;6.70;;;24.60;76.70;;;;;;5080230;28;20106;-63
2023/07/22 07:44:08;;;;;;;10.38;6.78;;;24.20;79.10;;;;;;5084833;28;20394;-61
2023/07/22 07:46:35;;;;;;;10.68;6.82;;;24.10;79.00;;;;;;5083455;28;20070;-63
2023/07/22 07:49:01;;;;;;;10.45;6.90;;;24.20;79.10;;;;;;5090945;28;20086;-60
2023/07/22 07:51:27;;;;;;;11.13;7.00;;;24.40;76.50;;;;;;5092138;28;20040;-62
2023/07/22 07:53:53;;;;;;;10.77;7.03;;;24.20;76.50;;;;;;5091468;28;20032;-60
2023/07/22 07:56:19;;;;;;;11.95;7.57;;;24.30;76.50;;;;;;5087185;28;20526;-59
2023/07/22 07:58:46;;;;;;;11.38;7.68;;;24.20;76.80;;;;;;5091217;28;20386;-60
2023/07/22 08:01:12;;;;;;;10.32;7.43;;;23.80;79.60;;;;;;5088425;28;20048;-60
2023/07/22 08:03:38;;;;;;;10.38;7.85;;;23.80;76.90;;;;;;5089767;28;20044;-64
2023/07/22 08:06:04;;;;;;;13.43;7.45;;;23.80;77.30;;;;;;5077277;28;20045;-62
2023/07/22 08:08:30;;;;;;;11.90;7.88;;;23.50;77.20;;;;;;5081006;28;20043;-59
2023/07/22 08:10:59;;;;;;;11.07;7.70;;;23.60;77.50;;;;;;5076669;28;20432;-62
2023/07/22 08:13:25;;;;;;;13.10;8.05;;;23.40;80.60;;;;;;5095304;28;20066;-62
2023/07/22 08:15:52;;;;;;;10.15;7.45;;;23.30;80.50;;;;;;5093762;28;20055;-61
2023/07/22 08:18:18;;;;;;;12.48;7.90;;;23.20;78.10;;;;;;5096921;28;20055;-61
2023/07/22 08:20:47;;;;;;;10.43;7.25;;;23.40;77.70;;;;;;5096001;28;20478;-63
2023/07/22 08:23:13;;;;;;;14.70;8.02;;;23.50;78.40;;;;;;5096073;28;20062;-63
2023/07/22 08:25:38;;;;;;;10.38;7.57;;;23.60;78.70;;;;;;5089201;28;20040;-63
2023/07/22 08:28:04;;;;;;;10.85;7.38;;;23.30;80.80;;;;;;5076550;28;20383;-64
2023/07/22 08:30:30;;;;;;;10.48;7.20;;;23.50;78.20;;;;;;5074113;28;20044;-61
2023/07/22 08:32:56;;;;;;;12.45;7.30;;;23.60;81.00;;;;;;5077793;28;20053;-63
2023/07/22 08:35:22;;;;;;;10.48;7.03;;;23.40;81.00;;;;;;5095133;28;20101;-61
2023/07/22 08:37:48;;;;;;;12.45;7.20;;;23.40;81.10;;;;;;5095825;28;20032;-64
2023/07/22 08:40:13;;;;;;;11.60;7.05;;;23.50;81.10;;;;;;5096236;28;20052;-62
2023/07/22 08:42:40;;;;;;;10.80;6.88;;;23.40;81.30;;;;;;5095960;28;20484;-60
2023/07/22 08:45:08;;;;;;;11.48;6.85;;;23.50;81.10;;;;;;5068668;28;20044;-66
2023/07/22 08:47:33;;;;;;;8.75;6.40;;;23.70;78.30;;;;;;5082155;28;20040;-70
2023/07/22 08:50:01;;;;;;;9.30;6.25;;;23.70;78.50;;;;;;5083949;28;20098;-68
2023/07/22 08:52:27;;;;;;;10.05;6.88;;;23.60;78.20;;;;;;5085671;28;20116;-66
2023/07/22 08:54:53;;;;;;;10.07;6.30;;;23.80;78.10;;;;;;5085056;28;20044;-64
2023/07/22 08:57:19;;;;;;;10.25;6.07;;;23.50;77.80;;;;;;5085333;28;20048;-70
2023/07/22 08:59:45;;;;;;;9.95;6.50;;;23.60;80.50;;;;;;5092018;28;20130;-62
2023/07/22 09:02:12;;;;;;;8.63;6.00;;;23.60;80.70;;;;;;5091522;28;20050;-68
2023/07/22 09:04:40;;;;;;;11.02;5.70;;;23.30;77.10;;;;;;5077635;28;20109;-63
2023/07/22 09:07:06;;;;;;;17.60;6.00;;;23.40;80.50;;;;;;5085990;28;20070;-60
2023/07/22 09:09:32;;;;;;;15.30;6.32;;;23.50;80.90;;;;;;5090897;28;20497;-66
2023/07/22 09:11:58;;;;;;;12.70;5.63;;;23.50;78.10;;;;;;5092702;28;20115;-60
2023/07/22 09:14:24;;;;;;;11.60;5.95;;;23.50;77.90;;;;;;5094091;28;20144;-62
2023/07/22 09:16:50;;;;;;;9.90;5.93;;;23.40;77.90;;;;;;5094160;28;20127;-63
2023/07/22 09:19:16;;;;;;;9.57;5.35;;;23.30;77.80;;;;;;5076474;28;20095;-66
2023/07/22 09:21:42;;;;;;;11.13;5.28;;;23.50;78.00;;;;;;5087210;28;20052;-68
2023/07/22 09:24:27;;;;;;;8.38;5.40;;;23.40;77.80;;;;;;5095366;28;20562;-65
2023/07/22 09:26:53;;;;;;;7.75;5.03;;;23.70;78.90;;;;;;5095127;28;20127;-63
2023/07/22 09:29:35;;;;;;;9.15;5.10;;;23.50;80.30;;;;;;5094875;28;20127;-61
2023/07/22 09:32:03;;;;;;;10.65;5.07;;;23.80;80.20;;;;;;5086245;28;20055;-70
2023/07/22 09:34:29;;;;;;;8.40;4.90;;;23.60;80.00;;;;;;5091658;28;20052;-66
2023/07/22 09:37:00;;;;;;;7.07;4.57;;;23.60;77.10;;;;;;5081889;28;20044;-64
2023/07/22 09:39:26;;;;;;;7.47;4.65;;;23.60;79.70;;;;;;5095200;28;20056;-64
2023/07/22 09:41:52;;;;;;;7.30;4.25;;;23.40;79.60;;;;;;5092195;28;20402;-62
2023/07/22 09:44:18;;;;;;;8.30;4.28;;;23.10;79.30;;;;;;5093801;28;20048;-61
2023/07/22 09:46:50;;;;;;;6.72;4.28;;;23.30;79.30;;;;;;5093570;28;20048;-60
2023/07/22 09:49:17;;;;;;;6.43;4.15;;;23.10;79.20;;;;;;5090631;28;20048;-69
2023/07/22 09:51:43;;;;;;;11.52;4.65;;;23.30;77.10;;;;;;5092070;28;20054;-68
2023/07/22 09:54:09;;;;;;;8.18;4.53;;;23.10;79.70;;;;;;5087578;28;20044;-66
2023/07/22 09:56:49;;;;;;;8.18;4.95;;;23.20;80.10;;;;;;5093071;28;20063;-73
2023/07/22 09:59:17;;;;;;;7.63;5.07;;;23.10;80.50;;;;;;5094868;28;20048;-62
2023/07/22 10:01:43;;;;;;;8.00;5.07;;;23.20;77.80;;;;;;5091996;28;20083;-61
2023/07/22 10:04:09;;;;;;;8.98;5.55;;;23.00;80.40;;;;;;5076238;28;20048;-62
2023/07/22 10:06:35;;;;;;;9.15;5.03;;;22.90;80.80;;;;;;5056135;28;20051;-64
2023/07/22 10:09:07;;;;;;;14.82;6.55;;;22.80;82.20;;;;;;5063270;28;20044;-63
2023/07/22 10:11:34;;;;;;;15.82;6.32;;;22.90;79.30;;;;;;5084535;28;20115;-63
2023/07/22 10:14:01;;;;;;;11.85;6.80;;;22.60;79.40;;;;;;5088432;28;20059;-72
2023/07/22 10:16:27;;;;;;;12.35;6.38;;;22.80;83.60;;;;;;5094014;28;20101;-63
2023/07/22 10:18:54;;;;;;;12.05;7.05;;;22.70;82.70;;;;;;5081852;28;20105;-67
2023/07/22 10:21:20;;;;;;;10.07;7.03;;;22.60;82.90;;;;;;5083770;28;20478;-67
2023/07/22 10:23:47;;;;;;;10.45;7.15;;;22.60;83.00;;;;;;5083551;28;20047;-63
2023/07/22 10:26:18;;;;;;;9.93;6.97;;;22.50;83.10;;;;;;5063552;28;20051;-60
2023/07/22 10:28:47;;;;;;;11.57;6.45;;;22.60;83.50;;;;;;5082666;28;20044;-64
2023/07/22 10:31:18;;;;;;;10.05;6.75;;;22.60;84.10;;;;;;5094240;28;20048;-71
2023/07/22 10:33:48;;;;;;;8.73;5.93;;;22.60;83.70;;;;;;5090917;28;20405;-71
2023/07/22 10:36:18;;;;;;;11.25;6.40;;;22.70;84.20;;;;;;5091185;28;20055;-66
2023/07/22 10:38:44;;;;;;;8.80;6.10;;;22.80;83.70;;;;;;5084161;28;20063;-64
2023/07/22 10:41:16;;;;;;;11.05;6.63;;;22.70;84.00;;;;;;5039530;28;20402;-71
2023/07/22 10:43:43;;;;;;;8.60;5.38;;;;;;;;;;5073880;28;20044;-66
2023/07/22 10:46:12;;;;;;;9.52;5.88;;;22.70;83.70;;;;;;5083674;28;20401;-65
2023/07/22 10:48:41;;;;;;;8.32;5.40;;;22.80;83.70;;;;;;5071255;28;20133;-69
2023/07/22 10:51:07;;;;;;;8.68;5.07;;;22.90;83.50;;;;;;5093846;28;20406;-64
2023/07/22 10:53:37;;;;;;;9.18;5.60;;;22.80;83.40;;;;;;5093540;28;20047;-66
2023/07/22 10:56:07;;;;;;;9.07;5.55;;;22.70;83.60;;;;;;5086141;28;20382;-64
2023/07/22 10:58:53;;;;;;;9.35;5.32;;;22.70;84.60;;;;;;5050466;28;20052;-61
2023/07/22 11:01:28;;;;;;;8.27;5.30;;;22.60;84.20;;;;;;5046059;28;20087;-69
2023/07/22 11:04:13;;;;;;;7.70;5.13;;;22.60;84.10;;;;;;5051929;28;20041;-61
2023/07/22 11:06:46;;;;;;;8.75;5.60;;;22.80;84.20;;;;;;5051810;28;20072;-71
2023/07/22 11:09:27;;;;;;;8.27;5.75;;;22.70;84.60;;;;;;5053526;28;20394;-68
2023/07/22 11:12:04;;;;;;;8.00;5.30;;;22.80;82.30;;;;;;5033527;28;20046;-61
2023/07/22 11:14:35;;;;;;;7.07;5.05;;;22.60;84.60;;;;;;5037733;28;20045;-68
2023/07/22 11:17:05;;;;;;;7.60;4.82;;;22.70;84.40;;;;;;5051534;28;20459;-64
2023/07/22 11:19:32;;;;;;;8.52;4.88;;;22.70;84.60;;;;;;5040370;28;20049;-61
2023/07/22 11:21:57;;;;;;;7.63;4.78;;;22.70;82.20;;;;;;5033305;28;20041;-68
2023/07/22 11:24:24;;;;;;;7.47;4.68;;;22.70;84.60;;;;;;5034012;28;20109;-62
2023/07/22 11:26:51;;;;;;;7.13;4.40;;;22.90;84.70;;;;;;5052820;28;20090;-61
2023/07/22 11:29:17;;;;;;;7.65;4.32;;;22.70;85.00;;;;;;5045769;28;20045;-63
2023/07/22 11:31:45;;;;;;;7.63;4.53;;;22.80;82.30;;;;;;5052004;28;20045;-60
2023/07/22 11:34:11;;;;;;;8.20;4.72;;;22.80;85.00;;;;;;5052293;28;20048;-70
2023/07/22 11:36:37;;;;;;;7.47;4.63;;;22.90;85.10;;;;;;5054683;28;20114;-61
2023/07/22 11:39:06;;;;;;;6.47;4.53;;;22.90;85.20;;;;;;5051471;28;20032;-66
2023/07/22 11:41:32;;;;;;;8.38;5.15;;;22.80;85.30;;;;;;5049238;28;20052;-70
2023/07/22 11:43:59;;;;;;;8.02;5.28;;;22.90;85.70;;;;;;5043603;28;20049;-61
2023/07/22 11:46:25;;;;;;;7.88;5.28;;;22.70;85.20;;;;;;5060677;28;20055;-69
2023/07/22 11:48:52;;;;;;;8.10;4.70;;;22.90;83.00;;;;;;5044715;28;20132;-66
2023/07/22 11:51:23;;;;;;;8.13;5.72;;;22.80;85.90;;;;;;5043401;28;20394;-67
2023/07/22 11:53:53;;;;;;;11.40;5.95;;;22.70;85.70;;;;;;5037775;28;20053;-60
2023/07/22 11:56:26;;;;;;;8.77;5.88;;;22.70;86.00;;;;;;5047780;28;20107;-60
2023/07/22 11:58:53;;;;;;;15.98;5.63;;;22.60;85.70;;;;;;5086869;28;20382;-70
2023/07/22 12:01:19;;;;;;;15.30;6.63;;;22.70;85.90;;;;;;5086086;28;20051;-60
2023/07/22 12:03:45;;;;;;;11.77;5.80;;;22.60;86.60;;;;;;5084504;28;20038;-63
2023/07/22 12:06:11;;;;;;;10.07;4.75;;;22.60;86.90;;;;;;5054657;28;20434;-70
2023/07/22 12:08:42;;;;;;;9.38;6.00;;;22.70;86.50;;;;;;5054896;28;20512;-68
2023/07/22 12:11:08;;;;;;;10.48;5.40;;;22.70;86.30;;;;;;5085627;28;20420;-69
2023/07/22 12:13:37;;;;;;;9.48;5.10;;;22.70;86.30;;;;;;5089690;28;20039;-69
2023/07/22 12:16:05;;;;;;;8.85;5.30;;;22.60;86.40;;;;;;5072498;28;20447;-67
2023/07/22 12:18:46;;;;;;;8.50;5.68;;;22.70;86.70;;;;;;5072440;28;20051;-68
2023/07/22 12:21:13;;;;;;;11.85;6.60;;;23.00;88.40;;;;;;5081838;28;20131;-69
2023/07/22 12:23:39;;;;;;;8.98;6.18;;;22.60;86.80;;;;;;5092301;28;20074;-69
2023/07/22 12:26:05;;;;;;;8.70;6.20;;;22.80;87.20;;;;;;5091225;28;20127;-68
2023/07/22 12:28:31;;;;;;;10.25;6.85;;;22.60;87.50;;;;;;5072508;28;20047;-62
2023/07/22 12:30:57;;;;;;;9.48;7.20;;;22.50;84.70;;;;;;5076832;28;20036;-62
2023/07/22 12:33:24;;;;;;;9.52;6.72;;;22.50;87.70;;;;;;5092693;28;20137;-61
2023/07/22 12:35:50;;;;;;;10.70;6.22;;;22.50;85.50;;;;;;5093011;28;20374;-59
2023/07/22 12:38:17;;;;;;;10.43;6.28;;;22.50;88.40;;;;;;5092592;28;20128;-61
2023/07/22 12:40:43;;;;;;;10.48;5.85;;;22.50;88.20;;;;;;5091964;28;20083;-63
2023/07/22 12:43:08;;;;;;;8.45;5.82;;;22.40;88.40;;;;;;5070391;28;20040;-60
2023/07/22 12:45:34;;;;;;;8.68;6.53;;;22.40;88.50;;;;;;5092227;28;20379;-67
2023/07/22 12:48:00;;;;;;;9.15;6.35;;;22.40;88.70;;;;;;5092077;28;20493;-65